Ana Sayfa
METAR-TAF:

METAR-TAF

Havaalanları :

Manado, Endonezya

Enlem: 01-32N, Boylam: 124-55E, yükseklik: 80 m

Güncel hava durumu gözlemi

Rapor saat 02:00 UTC de 43 dakika önce yapıldı.
Rüzgar güneydan 7 kt, güneydoğu ve güney/güneybatı arasında değişken
Sıcaklık 32°C
Nem 49%
Basınç 1011 hPa
Görüş mesafesi 10 km veya daha fazla
2100 ft yükseklikte az bulutlu

METAR: WAMM 140200Z 17007KT 140V210 9999 FEW021 32/20 Q1011 NOSIG METAR WADL NIL

Saat: 09:43 (02:43 UTC)

Tahmin

Rapor saat 23:00 UTC de 3 saat ve 43 dakika önce yapıldı.
Ayın 14'si saat 00 UTC'den ayın 15'si saat 06 UTC'ye kadar geçerli Tahmin
Rüzgar güneydan 10 kt
Görüş mesafesi 10 km veya daha fazla
2000 ft yükseklikte parçalı bulutlu
Dönüşüyor
ayın 14'si saat 11 UTC'den ayın 14'si saat 12 UTC'ye kadar
Rüzgar değişken yönden 2 kt

TAF: WAMM 132300Z 1400/1506 19010KT 9999 SCT020 BECMG 1411/1412 VRB02KT

4.000'den fazla havaalanı için hava durumu gözlemleri ve tahminleri (METAR ve TAF raporları).

Kullanılabilir istasyonlar harita üzerinde sarı ve kırmızı noktalarla gösterilir.

İstasyonun adını görmek için fareyi noktanın üzerinde gezdirin.

Sonrasında hava gözlem ve tahminlerini görmek için tıklayın.

Haritayı değiştirmek için: yaklaştırmak için siyah artı işaretli yeşil düğmeye ve uzaklaştırmak için de eksi işaretli düğmeye hızla tıklayın; bitişik haritalar için yeşil okları kullanın.


METAR-TAF: